Time;durP1;ratioP1;P1;durP2;ratioP2;P2;SDS_P1;SDS_P2;PMS_P1;PMS_P2;Temp;Humidity;BMP_temperature;BMP_pressure;BME280_temperature;BME280_humidity;BME280_pressure;Samples;Min_cycle;Max_cycle;Signal;HPM_P1;HPM_P2
2022/06/22 00:01:03;;;;;;;13.63;10.32;;;;;;;;;;4899696;29;20045;-83
2022/06/22 00:03:55;;;;;;;13.35;10.13;;;;;;;;;;4882556;29;20044;-83
2022/06/22 00:06:47;;;;;;;17.75;10.95;;;;;;;;;;4905444;29;20045;-83
2022/06/22 00:09:36;;;;;;;16.05;10.98;;;;;;;;;;4900475;29;20045;-82
2022/06/22 00:12:28;;;;;;;15.57;10.70;;;;;;;;;;4900563;29;20263;-84
2022/06/22 00:15:29;;;;;;;18.50;11.20;;;;;;;;;;4899346;29;20045;-84
2022/06/22 00:18:37;;;;;;;17.23;10.45;;;;;;;;;;4900871;29;20057;-84
2022/06/22 00:21:25;;;;;;;19.27;9.85;;;;;;;;;;4892438;29;20048;-82
2022/06/22 00:24:23;;;;;;;16.92;10.98;;;;;;;;;;4900417;29;20052;-82
2022/06/22 00:27:15;;;;;;;15.10;10.50;;;;;;;;;;4876121;29;20045;-83
2022/06/22 00:30:30;;;;;;;16.02;10.80;;;;;;;;;;4898969;29;20048;-81
2022/06/22 00:33:22;;;;;;;17.77;10.63;;;;;;;;;;4880284;29;20052;-82
2022/06/22 00:36:07;;;;;;;13.85;10.70;;;;;;;;;;4899674;29;20052;-82
2022/06/22 00:39:14;;;;;;;16.83;10.82;;;;;;;;;;4873769;29;20060;-82
2022/06/22 00:42:14;;;;;;;15.95;10.60;;;;;;;;;;4897270;29;20403;-83
2022/06/22 00:45:06;;;;;;;14.18;10.93;;;;;;;;;;4916109;29;20052;-82
2022/06/22 00:48:04;;;;;;;12.25;10.02;;;;;;;;;;4900150;29;20048;-83
2022/06/22 00:51:04;;;;;;;13.40;10.18;;;;;;;;;;4899989;29;20060;-83
2022/06/22 00:53:58;;;;;;;13.13;9.85;;;;;;;;;;4896092;29;20044;-83
2022/06/22 00:56:51;;;;;;;17.05;9.50;;;;;;;;;;4880142;29;20052;-83
2022/06/22 00:59:45;;;;;;;14.57;9.10;;;;;;;;;;4899561;29;20044;-81
2022/06/22 01:02:57;;;;;;;12.10;9.45;;;;;;;;;;4899241;29;20048;-83
2022/06/22 01:05:55;;;;;;;12.95;10.00;;;;;;;;;;4893928;29;20399;-82
2022/06/22 01:08:43;;;;;;;13.57;9.88;;;;;;;;;;4902302;29;20041;-83
2022/06/22 01:14:58;;;;;;;14.30;9.38;;;;;;;;;;4899241;29;20040;-81
2022/06/22 01:17:46;;;;;;;19.48;9.80;;;;;;;;;;4894270;29;20052;-83
2022/06/22 01:21:03;;;;;;;15.73;9.73;;;;;;;;;;4898930;29;20060;-81
2022/06/22 01:24:23;;;;;;;15.50;10.43;;;;;;;;;;4899159;29;20048;-82
2022/06/22 01:27:32;;;;;;;14.65;10.35;;;;;;;;;;4915221;29;20398;-81
2022/06/22 01:30:24;;;;;;;15.85;10.55;;;;;;;;;;4898314;29;20053;-82
2022/06/22 01:33:33;;;;;;;18.63;10.95;;;;;;;;;;4898025;29;20048;-82
2022/06/22 01:36:48;;;;;;;18.05;11.40;;;;;;;;;;4898886;29;20502;-82
2022/06/22 01:39:37;;;;;;;15.45;11.20;;;;;;;;;;4892372;29;20053;-86
2022/06/22 01:42:31;;;;;;;17.63;12.52;;;;;;;;;;4898418;29;20049;-82
2022/06/22 01:45:38;;;;;;;20.02;12.30;;;;;;;;;;4898652;29;20402;-82
2022/06/22 01:48:39;;;;;;;18.02;12.18;;;;;;;;;;4898043;29;20060;-82
2022/06/22 01:51:34;;;;;;;16.88;11.95;;;;;;;;;;4898599;29;20060;-83
2022/06/22 01:54:26;;;;;;;21.10;12.18;;;;;;;;;;4897679;29;20044;-83
2022/06/22 01:57:31;;;;;;;18.40;12.45;;;;;;;;;;4898574;29;20053;-82
2022/06/22 02:00:19;;;;;;;20.40;12.80;;;;;;;;;;4898234;29;20049;-83
2022/06/22 02:03:29;;;;;;;18.35;11.35;;;;;;;;;;4898359;29;20406;-83
2022/06/22 02:10:09;;;;;;;18.58;11.38;;;;;;;;;;4893305;29;20045;-82
2022/06/22 02:13:14;;;;;;;17.50;12.50;;;;;;;;;;4898629;29;20475;-82
2022/06/22 02:16:25;;;;;;;18.20;12.25;;;;;;;;;;4897714;29;20053;-83
2022/06/22 02:19:16;;;;;;;15.63;12.02;;;;;;;;;;4898481;29;20409;-81
2022/06/22 02:22:02;;;;;;;13.85;11.35;;;;;;;;;;4897877;29;20049;-82
2022/06/22 02:24:48;;;;;;;15.73;12.10;;;;;;;;;;4898136;29;20056;-82
2022/06/22 02:27:34;;;;;;;18.42;12.70;;;;;;;;;;4898288;29;20479;-83
2022/06/22 02:30:19;;;;;;;16.92;12.13;;;;;;;;;;4880837;29;20093;-82
2022/06/22 02:33:07;;;;;;;16.55;11.70;;;;;;;;;;4898108;29;20052;-82
2022/06/22 02:35:54;;;;;;;16.40;12.20;;;;;;;;;;4898214;29;20044;-82
2022/06/22 02:38:43;;;;;;;18.35;12.05;;;;;;;;;;4899019;29;20052;-82
2022/06/22 02:44:39;;;;;;;18.35;12.85;;;;;;;;;;4901098;29;20495;-82
2022/06/22 02:47:27;;;;;;;21.35;13.20;;;;;;;;;;4901875;29;20051;-82
2022/06/22 02:50:36;;;;;;;18.80;11.88;;;;;;;;;;4901215;29;20048;-82
2022/06/22 02:53:29;;;;;;;16.75;13.35;;;;;;;;;;4901176;29;20487;-82
2022/06/22 02:56:25;;;;;;;21.43;14.20;;;;;;;;;;4901316;29;20052;-82
2022/06/22 02:59:10;;;;;;;22.58;14.45;;;;;;;;;;4900822;29;20406;-82
2022/06/22 03:01:56;;;;;;;18.67;15.90;;;;;;;;;;4901280;29;20048;-82
2022/06/22 03:04:42;;;;;;;31.20;16.83;;;;;;;;;;4906044;29;20053;-82
2022/06/22 03:07:29;;;;;;;30.40;19.83;;;;;;;;;;4901157;29;20044;-83
2022/06/22 03:10:30;;;;;;;29.27;18.23;;;;;;;;;;4901067;29;20498;-82
2022/06/22 03:13:18;;;;;;;26.90;17.85;;;;;;;;;;4900528;29;20426;-82
2022/06/22 03:16:07;;;;;;;24.90;16.77;;;;;;;;;;4887054;29;20052;-82
2022/06/22 03:18:54;;;;;;;24.77;16.83;;;;;;;;;;4900691;29;20053;-82
2022/06/22 03:21:41;;;;;;;19.42;13.98;;;;;;;;;;4893384;29;20052;-82
2022/06/22 03:24:40;;;;;;;18.63;12.93;;;;;;;;;;4901272;29;20486;-82
2022/06/22 03:27:29;;;;;;;16.13;12.55;;;;;;;;;;4900442;29;20052;-81
2022/06/22 03:30:21;;;;;;;19.63;11.75;;;;;;;;;;4900386;29;20053;-82
2022/06/22 03:33:11;;;;;;;18.95;11.98;;;;;;;;;;4892412;29;20045;-82
2022/06/22 03:36:01;;;;;;;16.10;12.13;;;;;;;;;;4900626;29;20403;-82
2022/06/22 03:38:57;;;;;;;16.75;12.63;;;;;;;;;;4900273;29;20501;-83
2022/06/22 03:41:49;;;;;;;16.85;12.52;;;;;;;;;;4900011;29;20045;-82
2022/06/22 03:44:39;;;;;;;17.38;12.85;;;;;;;;;;4900466;29;20057;-83
2022/06/22 03:47:34;;;;;;;22.33;12.35;;;;;;;;;;4900556;29;20044;-82
2022/06/22 03:50:33;;;;;;;18.92;12.23;;;;;;;;;;4899773;29;20045;-83
2022/06/22 03:53:44;;;;;;;17.13;12.50;;;;;;;;;;4886253;29;20049;-83
2022/06/22 03:56:34;;;;;;;19.63;12.48;;;;;;;;;;4899894;29;20399;-82
2022/06/22 03:59:21;;;;;;;17.20;12.77;;;;;;;;;;4900323;29;20053;-83
2022/06/22 04:02:07;;;;;;;22.73;12.07;;;;;;;;;;4899571;29;20044;-83
2022/06/22 04:04:54;;;;;;;18.95;12.70;;;;;;;;;;4900293;29;20064;-83
2022/06/22 04:07:40;;;;;;;20.98;14.07;;;;;;;;;;4900131;29;20044;-83
2022/06/22 04:10:25;;;;;;;30.70;14.85;;;;;;;;;;4905806;29;20394;-82
2022/06/22 04:13:19;;;;;;;26.83;15.30;;;;;;;;;;4900165;29;20483;-82
2022/06/22 04:16:17;;;;;;;23.33;14.25;;;;;;;;;;4899690;29;20446;-83
2022/06/22 04:19:13;;;;;;;25.35;14.80;;;;;;;;;;4899589;29;20060;-82
2022/06/22 04:22:13;;;;;;;30.55;15.95;;;;;;;;;;4899835;29;20048;-81
2022/06/22 04:25:00;;;;;;;22.23;15.15;;;;;;;;;;4899189;29;20056;-82
2022/06/22 04:27:50;;;;;;;22.20;14.57;;;;;;;;;;4899687;29;20052;-82
2022/06/22 04:30:42;;;;;;;28.48;15.32;;;;;;;;;;4899512;29;20048;-82
2022/06/22 04:33:35;;;;;;;22.40;15.13;;;;;;;;;;4899284;29;20048;-82
2022/06/22 04:36:26;;;;;;;27.00;16.33;;;;;;;;;;4899753;29;20486;-82
2022/06/22 04:39:18;;;;;;;30.05;18.00;;;;;;;;;;4899308;29;20041;-82
2022/06/22 04:42:04;;;;;;;23.75;15.52;;;;;;;;;;4899782;29;20057;-82
2022/06/22 04:44:51;;;;;;;24.67;15.60;;;;;;;;;;4898507;29;20040;-83
2022/06/22 04:47:36;;;;;;;28.23;16.95;;;;;;;;;;4899392;29;20040;-83
2022/06/22 04:50:21;;;;;;;23.23;15.00;;;;;;;;;;4899388;29;20049;-83
2022/06/22 04:53:16;;;;;;;22.23;14.73;;;;;;;;;;4898573;29;20041;-82
2022/06/22 04:56:14;;;;;;;19.73;13.45;;;;;;;;;;4899497;29;20056;-82
2022/06/22 04:59:01;;;;;;;19.88;13.35;;;;;;;;;;4899125;29;20040;-82
2022/06/22 05:01:56;;;;;;;17.10;12.85;;;;;;;;;;4899002;29;20483;-80
2022/06/22 05:04:43;;;;;;;;;;;;;;;;;;4901402;29;20049;-82
2022/06/22 05:07:52;;;;;;;20.02;14.43;;;;;;;;;;4904641;29;19915;-81
2022/06/22 05:10:49;;;;;;;19.13;13.50;;;;;;;;;;4905277;29;20479;-82
2022/06/22 05:13:40;;;;;;;19.98;14.07;;;;;;;;;;4904155;29;20040;-82
2022/06/22 05:16:30;;;;;;;20.52;13.95;;;;;;;;;;4903980;29;20049;-84
2022/06/22 05:19:16;;;;;;;17.00;13.90;;;;;;;;;;4904499;29;20391;-82
2022/06/22 05:22:08;;;;;;;16.42;12.35;;;;;;;;;;4903248;29;20044;-82
2022/06/22 05:24:58;;;;;;;19.15;12.43;;;;;;;;;;4904119;29;20057;-81
2022/06/22 05:28:00;;;;;;;20.88;12.50;;;;;;;;;;4898889;29;20060;-82
2022/06/22 05:30:53;;;;;;;17.00;12.38;;;;;;;;;;4898695;29;20064;-85
2022/06/22 05:33:44;;;;;;;17.80;13.00;;;;;;;;;;4904896;29;20045;-82
2022/06/22 05:36:34;;;;;;;17.98;12.57;;;;;;;;;;4898491;29;20049;-83
2022/06/22 05:39:19;;;;;;;20.48;12.63;;;;;;;;;;4898447;29;20049;-82
2022/06/22 05:42:05;;;;;;;16.05;12.48;;;;;;;;;;4897918;29;20390;-83
2022/06/22 05:44:53;;;;;;;16.55;12.90;;;;;;;;;;4898649;29;20394;-82
2022/06/22 05:47:39;;;;;;;19.35;12.75;;;;;;;;;;4899846;29;20048;-81
2022/06/22 05:50:36;;;;;;;20.52;12.65;;;;;;;;;;4898907;29;20048;-81
2022/06/22 05:53:28;;;;;;;17.55;12.77;;;;;;;;;;4897363;29;20048;-82
2022/06/22 05:56:39;;;;;;;19.83;12.82;;;;;;;;;;4897734;29;20048;-81
2022/06/22 05:59:24;;;;;;;22.90;13.63;;;;;;;;;;4898846;29;20044;-81
2022/06/22 06:02:37;;;;;;;18.77;13.20;;;;;;;;;;4898270;29;20394;-82
2022/06/22 06:05:52;;;;;;;29.77;13.65;;;;;;;;;;4898417;29;20057;-81
2022/06/22 06:08:47;;;;;;;19.85;12.77;;;;;;;;;;4892330;29;20041;-82
2022/06/22 06:11:38;;;;;;;17.90;13.30;;;;;;;;;;4897753;29;20052;-80
2022/06/22 06:14:32;;;;;;;19.15;11.85;;;;;;;;;;4900339;29;20518;-82
2022/06/22 06:17:30;;;;;;;22.90;13.30;;;;;;;;;;4901589;29;20044;-83
2022/06/22 06:20:25;;;;;;;20.08;12.75;;;;;;;;;;4902027;29;20045;-83
2022/06/22 06:23:27;;;;;;;19.38;12.73;;;;;;;;;;4902373;29;20049;-79
2022/06/22 06:30:07;;;;;;;16.98;11.30;;;;;;;;;;4901532;29;20057;-80
2022/06/22 06:33:01;;;;;;;17.10;12.20;;;;;;;;;;4901427;29;20060;-81
2022/06/22 06:35:59;;;;;;;16.15;12.18;;;;;;;;;;4901622;29;20398;-80
2022/06/22 06:38:56;;;;;;;18.85;11.82;;;;;;;;;;4901113;29;20048;-80
2022/06/22 06:42:03;;;;;;;15.88;10.90;;;;;;;;;;4901614;29;20045;-80
2022/06/22 06:44:52;;;;;;;18.23;11.43;;;;;;;;;;4901678;29;20049;-80
2022/06/22 06:47:37;;;;;;;18.30;11.00;;;;;;;;;;4900676;29;20056;-80
2022/06/22 06:50:39;;;;;;;20.65;11.15;;;;;;;;;;4901224;29;20495;-80
2022/06/22 06:53:41;;;;;;;18.58;10.85;;;;;;;;;;4900274;29;20045;-80
2022/06/22 06:56:40;;;;;;;17.98;11.55;;;;;;;;;;4901107;29;20056;-80
2022/06/22 06:59:29;;;;;;;17.73;11.20;;;;;;;;;;4899751;29;20056;-80
2022/06/22 07:02:20;;;;;;;15.48;10.80;;;;;;;;;;4900954;29;20052;-79
2022/06/22 07:05:13;;;;;;;16.25;10.65;;;;;;;;;;4906634;29;20060;-78
2022/06/22 07:08:27;;;;;;;15.10;10.55;;;;;;;;;;4906009;29;20053;-81
2022/06/22 07:11:33;;;;;;;19.23;9.57;;;;;;;;;;4893648;29;20053;-80
2022/06/22 07:14:29;;;;;;;23.88;10.93;;;;;;;;;;4900252;29;20048;-79
2022/06/22 07:17:17;;;;;;;13.43;9.90;;;;;;;;;;4900326;29;20048;-79
2022/06/22 07:20:23;;;;;;;15.68;9.88;;;;;;;;;;4900647;29;20048;-78
2022/06/22 07:23:37;;;;;;;13.02;9.20;;;;;;;;;;4899998;29;20060;-79
2022/06/22 07:26:29;;;;;;;18.27;9.63;;;;;;;;;;4906055;29;20056;-79
2022/06/22 07:29:27;;;;;;;15.63;8.75;;;;;;;;;;4899852;29;20494;-79
2022/06/22 07:32:28;;;;;;;16.73;9.10;;;;;;;;;;4900626;29;20486;-79
2022/06/22 07:35:24;;;;;;;19.35;9.25;;;;;;;;;;4899772;29;20044;-78
2022/06/22 07:38:18;;;;;;;14.55;8.07;;;;;;;;;;4900444;29;20048;-77
2022/06/22 07:41:19;;;;;;;;;;;;;;;;;;4900806;29;20491;-78
2022/06/22 07:44:11;;;;;;;14.38;10.15;;;;;;;;;;4900955;29;19920;-76
2022/06/22 07:47:24;;;;;;;19.33;8.02;;;;;;;;;;4900154;29;20052;-77
2022/06/22 07:50:23;;;;;;;14.55;6.18;;;;;;;;;;4905270;29;20052;-80
2022/06/22 07:53:37;;;;;;;13.85;5.63;;;;;;;;;;4892356;29;20399;-78
2022/06/22 07:56:42;;;;;;;14.75;4.63;;;;;;;;;;4899649;29;20056;-79
2022/06/22 07:59:39;;;;;;;;;;;;;;;;;;4900475;29;20049;-79
2022/06/22 08:02:35;;;;;;;8.75;4.60;;;;;;;;;;4899938;29;19919;-81
2022/06/22 08:05:24;;;;;;;10.55;4.47;;;;;;;;;;4899817;29;20049;-80
2022/06/22 08:08:53;;;;;;;10.73;4.10;;;;;;;;;;4899335;29;20078;-78
2022/06/22 08:11:56;;;;;;;11.90;4.50;;;;;;;;;;4841563;29;20045;-80
2022/06/22 08:14:45;;;;;;;14.57;5.20;;;;;;;;;;4906406;29;20082;-78
2022/06/22 08:17:43;;;;;;;7.20;4.15;;;;;;;;;;4899262;29;20048;-77
2022/06/22 08:20:35;;;;;;;10.60;4.30;;;;;;;;;;4898742;29;20061;-78
2022/06/22 08:23:23;;;;;;;7.95;4.18;;;;;;;;;;4899658;29;20052;-78
2022/06/22 08:26:18;;;;;;;8.32;3.80;;;;;;;;;;4905180;29;20053;-78
2022/06/22 08:29:04;;;;;;;;;;;;;;;;;;4885470;29;20049;-78
2022/06/22 08:32:02;;;;;;;6.03;3.53;;;;;;;;;;4899299;29;19919;-79
2022/06/22 08:34:53;;;;;;;12.93;4.45;;;;;;;;;;4899240;29;20052;-79
2022/06/22 08:37:56;;;;;;;8.25;4.00;;;;;;;;;;4897691;29;20052;-79
2022/06/22 08:40:48;;;;;;;7.82;4.40;;;;;;;;;;4898143;29;20052;-78
2022/06/22 08:43:37;;;;;;;14.13;5.10;;;;;;;;;;4899253;29;20048;-79
2022/06/22 08:46:51;;;;;;;15.82;5.45;;;;;;;;;;4898709;29;20044;-78
2022/06/22 08:50:05;;;;;;;17.25;5.80;;;;;;;;;;4899627;29;20061;-77
2022/06/22 08:52:51;;;;;;;18.00;6.00;;;;;;;;;;4898920;29;20060;-78
2022/06/22 08:56:01;;;;;;;8.30;5.43;;;;;;;;;;4897811;29;20048;-80
2022/06/22 08:59:02;;;;;;;18.48;6.25;;;;;;;;;;4899120;29;20412;-81
2022/06/22 09:01:54;;;;;;;13.30;6.25;;;;;;;;;;4898618;29;20048;-80
2022/06/22 09:05:01;;;;;;;10.60;5.93;;;;;;;;;;4898436;29;20045;-77
2022/06/22 09:08:14;;;;;;;11.50;5.97;;;;;;;;;;4898386;29;20471;-79
2022/06/22 09:11:18;;;;;;;15.75;5.63;;;;;;;;;;4897363;29;20438;-78
2022/06/22 09:14:41;;;;;;;10.35;5.97;;;;;;;;;;4897604;29;20052;-78
2022/06/22 09:17:56;;;;;;;12.85;5.53;;;;;;;;;;4899579;29;20052;-77
2022/06/22 09:21:10;;;;;;;8.32;3.85;;;;;;;;;;4898601;29;20044;-78
2022/06/22 09:24:13;;;;;;;7.43;3.78;;;;;;;;;;4898357;29;20111;-79
2022/06/22 09:27:17;;;;;;;6.80;3.33;;;;;;;;;;4898613;29;20064;-79
2022/06/22 09:30:15;;;;;;;8.45;3.03;;;;;;;;;;4884828;29;20056;-81
2022/06/22 09:33:04;;;;;;;9.50;2.95;;;;;;;;;;4898390;29;20048;-80
2022/06/22 09:36:13;;;;;;;7.57;2.97;;;;;;;;;;4898609;29;20048;-80
2022/06/22 09:39:27;;;;;;;7.95;3.30;;;;;;;;;;4898544;29;20053;-79
2022/06/22 09:42:50;;;;;;;10.73;3.50;;;;;;;;;;4898669;29;20049;-78
2022/06/22 09:45:56;;;;;;;11.07;4.47;;;;;;;;;;4898289;29;20052;-78
2022/06/22 09:48:50;;;;;;;9.43;4.78;;;;;;;;;;4897924;29;20486;-78
2022/06/22 09:52:03;;;;;;;11.02;4.60;;;;;;;;;;4897905;29;20056;-78
2022/06/22 09:58:36;;;;;;;12.10;5.82;;;;;;;;;;4897850;29;20518;-78
2022/06/22 10:01:51;;;;;;;10.70;5.68;;;;;;;;;;4890398;29;20056;-79
2022/06/22 10:04:54;;;;;;;5.53;3.47;;;;;;;;;;4883388;29;20056;-78
2022/06/22 10:08:01;;;;;;;6.30;3.00;;;;;;;;;;4898048;29;20068;-79
2022/06/22 10:11:07;;;;;;;8.88;4.05;;;;;;;;;;4898188;29;20048;-78
2022/06/22 10:14:26;;;;;;;8.25;2.95;;;;;;;;;;4898055;29;20061;-78
2022/06/22 10:17:23;;;;;;;9.32;3.20;;;;;;;;;;4897842;29;20041;-78
2022/06/22 10:20:27;;;;;;;9.68;3.58;;;;;;;;;;4897695;29;20060;-79
2022/06/22 10:23:23;;;;;;;;;;;;;;;;;;4898578;29;20053;-79
2022/06/22 10:26:22;;;;;;;6.18;2.60;;;;;;;;;;4897726;29;20345;-78
2022/06/22 10:29:20;;;;;;;5.40;2.50;;;;;;;;;;4897726;29;20049;-78
2022/06/22 10:32:14;;;;;;;6.90;2.40;;;;;;;;;;4897981;29;20487;-78
2022/06/22 10:34:59;;;;;;;;;;;;;;;;;;4897661;29;20057;-78
2022/06/22 10:38:04;;;;;;;7.28;2.40;;;;;;;;;;4898032;29;19919;-79
2022/06/22 10:47:28;;;;;;;7.53;3.20;;;;;;;;;;4898012;29;20052;-77
2022/06/22 10:50:29;;;;;;;6.15;3.05;;;;;;;;;;4897981;29;20052;-80
2022/06/22 10:53:57;;;;;;;9.23;3.58;;;;;;;;;;4898192;29;20052;-79
2022/06/22 10:57:14;;;;;;;3.90;2.60;;;;;;;;;;4878533;29;20044;-79
2022/06/22 11:00:37;;;;;;;10.13;2.50;;;;;;;;;;4898135;29;20056;-78
2022/06/22 11:03:35;;;;;;;6.68;2.70;;;;;;;;;;4886168;29;20053;-78
2022/06/22 11:06:30;;;;;;;8.07;3.10;;;;;;;;;;4901199;29;20052;-79
2022/06/22 11:09:16;;;;;;;10.10;2.70;;;;;;;;;;4900694;29;20048;-78
2022/06/22 11:12:13;;;;;;;9.18;2.65;;;;;;;;;;4901114;29;20056;-78
2022/06/22 11:15:08;;;;;;;9.65;2.75;;;;;;;;;;4900762;29;20044;-79
2022/06/22 11:18:07;;;;;;;6.05;2.50;;;;;;;;;;4900331;29;20498;-78
2022/06/22 11:21:29;;;;;;;6.25;2.72;;;;;;;;;;4901078;29;20048;-79
2022/06/22 11:24:53;;;;;;;7.15;2.60;;;;;;;;;;4900407;29;20049;-79
2022/06/22 11:31:03;;;;;;;4.82;2.45;;;;;;;;;;4906486;29;20044;-79
2022/06/22 11:33:53;;;;;;;5.72;2.40;;;;;;;;;;4900613;29;20049;-79
2022/06/22 11:37:08;;;;;;;5.75;2.17;;;;;;;;;;4895602;29;20056;-79
2022/06/22 11:40:30;;;;;;;4.38;2.40;;;;;;;;;;4903349;29;20057;-78
2022/06/22 11:43:41;;;;;;;8.48;2.42;;;;;;;;;;4900664;29;20052;-79
2022/06/22 11:46:40;;;;;;;5.20;3.03;;;;;;;;;;4893255;29;20052;-79
2022/06/22 11:49:34;;;;;;;7.25;2.60;;;;;;;;;;4899634;29;20423;-78
2022/06/22 11:52:59;;;;;;;5.07;2.45;;;;;;;;;;4885787;29;20037;-79
2022/06/22 11:55:51;;;;;;;5.77;2.33;;;;;;;;;;4906240;29;20064;-78
2022/06/22 11:59:01;;;;;;;11.82;3.10;;;;;;;;;;4894535;29;20041;-78
2022/06/22 12:01:59;;;;;;;7.25;2.88;;;;;;;;;;4895765;29;20048;-80
2022/06/22 12:04:47;;;;;;;6.38;2.65;;;;;;;;;;4896084;29;20052;-79
2022/06/22 12:08:15;;;;;;;8.30;2.92;;;;;;;;;;4893509;29;20394;-79
2022/06/22 12:11:20;;;;;;;4.82;2.35;;;;;;;;;;4883880;29;20048;-80
2022/06/22 12:18:01;;;;;;;5.85;2.17;;;;;;;;;;4901797;29;20057;-80
2022/06/22 12:20:59;;;;;;;5.35;2.42;;;;;;;;;;4901260;29;20045;-80
2022/06/22 12:23:59;;;;;;;7.63;2.47;;;;;;;;;;4895795;29;20057;-78
2022/06/22 12:27:09;;;;;;;7.80;2.40;;;;;;;;;;4901497;29;20048;-79
2022/06/22 12:30:32;;;;;;;9.90;2.67;;;;;;;;;;4895980;29;20052;-82
2022/06/22 12:33:27;;;;;;;6.05;2.30;;;;;;;;;;4899624;29;20048;-79
2022/06/22 12:36:21;;;;;;;8.32;2.70;;;;;;;;;;4898996;29;20052;-79
2022/06/22 12:39:15;;;;;;;6.55;2.40;;;;;;;;;;4899771;29;20037;-81
2022/06/22 12:42:19;;;;;;;7.38;2.70;;;;;;;;;;4905255;29;20048;-79
2022/06/22 12:45:13;;;;;;;7.43;2.50;;;;;;;;;;4899818;29;20044;-80
2022/06/22 12:48:14;;;;;;;7.95;2.53;;;;;;;;;;4899594;29;20049;-81
2022/06/22 12:51:26;;;;;;;7.18;2.78;;;;;;;;;;4900383;29;20053;-80
2022/06/22 12:54:24;;;;;;;9.25;2.83;;;;;;;;;;4899412;29;20040;-78
2022/06/22 12:57:17;;;;;;;10.13;3.03;;;;;;;;;;4898696;29;20049;-79
2022/06/22 13:00:02;;;;;;;6.07;2.80;;;;;;;;;;4899022;29;20394;-80
2022/06/22 13:02:51;;;;;;;9.90;2.85;;;;;;;;;;4898110;29;20048;-79
2022/06/22 13:05:37;;;;;;;9.82;3.25;;;;;;;;;;4899061;29;20482;-79
2022/06/22 13:08:26;;;;;;;9.35;3.22;;;;;;;;;;4898970;29;20403;-79
2022/06/22 13:11:21;;;;;;;7.80;3.25;;;;;;;;;;4904485;29;20491;-79
2022/06/22 13:14:15;;;;;;;;;;;;;;;;;;4898963;29;20052;-77
2022/06/22 13:17:00;;;;;;;10.48;3.90;;;;;;;;;;4898108;29;19920;-79
2022/06/22 13:20:04;;;;;;;9.38;4.70;;;;;;;;;;4898308;29;20048;-80
2022/06/22 13:22:58;;;;;;;6.30;3.57;;;;;;;;;;4894552;29;20048;-79
2022/06/22 13:25:53;;;;;;;10.93;3.83;;;;;;;;;;4899722;29;20056;-79
2022/06/22 13:28:58;;;;;;;5.90;3.92;;;;;;;;;;4898023;29;20052;-80
2022/06/22 13:31:44;;;;;;;6.70;4.05;;;;;;;;;;4893239;29;20503;-80
2022/06/22 13:34:41;;;;;;;10.27;4.97;;;;;;;;;;4898356;29;20402;-81
2022/06/22 13:37:38;;;;;;;11.43;5.07;;;;;;;;;;4898298;29;20049;-79
2022/06/22 13:40:32;;;;;;;7.57;4.68;;;;;;;;;;4897874;29;20426;-81
2022/06/22 13:43:38;;;;;;;8.88;5.05;;;;;;;;;;4898479;29;20057;-78
2022/06/22 13:47:11;;;;;;;6.65;4.68;;;;;;;;;;4897584;29;20070;-78
2022/06/22 13:53:53;;;;;;;10.27;4.70;;;;;;;;;;4894363;29;20061;-77
2022/06/22 13:56:54;;;;;;;9.30;4.70;;;;;;;;;;4893004;29;20056;-76
2022/06/22 13:59:55;;;;;;;8.00;4.57;;;;;;;;;;4892772;29;20049;-77
2022/06/22 14:03:06;;;;;;;13.15;4.65;;;;;;;;;;4893063;29;20057;-77
2022/06/22 14:06:00;;;;;;;6.47;3.83;;;;;;;;;;4894558;29;20487;-78
2022/06/22 14:08:49;;;;;;;9.67;4.57;;;;;;;;;;4899796;29;20053;-77
2022/06/22 14:11:53;;;;;;;10.57;4.63;;;;;;;;;;4898205;29;20052;-78
2022/06/22 14:15:05;;;;;;;17.33;5.40;;;;;;;;;;4897172;29;20052;-76
2022/06/22 14:18:00;;;;;;;11.43;5.07;;;;;;;;;;4894597;29;20045;-76
2022/06/22 14:21:14;;;;;;;9.35;4.55;;;;;;;;;;4893425;29;20045;-77
2022/06/22 14:24:08;;;;;;;8.65;4.65;;;;;;;;;;4895958;29;20060;-76
2022/06/22 14:27:40;;;;;;;12.10;5.18;;;;;;;;;;4904221;29;20064;-77
2022/06/22 14:30:51;;;;;;;7.40;4.65;;;;;;;;;;4883625;29;20061;-76
2022/06/22 14:33:44;;;;;;;7.20;5.28;;;;;;;;;;4898348;29;20056;-75
2022/06/22 14:36:38;;;;;;;8.80;4.93;;;;;;;;;;4900561;29;20486;-77
2022/06/22 14:39:36;;;;;;;8.10;5.15;;;;;;;;;;4901996;29;20053;-77
2022/06/22 14:42:28;;;;;;;8.88;5.10;;;;;;;;;;4901082;29;20056;-77
2022/06/22 14:45:35;;;;;;;13.13;5.20;;;;;;;;;;4901354;29;20499;-79
2022/06/22 14:48:33;;;;;;;9.30;5.15;;;;;;;;;;4901449;29;20056;-78
2022/06/22 14:51:40;;;;;;;12.55;5.47;;;;;;;;;;4900899;29;20482;-79
2022/06/22 14:54:47;;;;;;;12.75;5.38;;;;;;;;;;4907494;29;20478;-79
2022/06/22 14:57:37;;;;;;;16.60;5.55;;;;;;;;;;4900682;29;20048;-78
2022/06/22 15:01:02;;;;;;;9.88;5.35;;;;;;;;;;4901170;29;20041;-77
2022/06/22 15:03:51;;;;;;;9.43;5.30;;;;;;;;;;4896757;29;20397;-78
2022/06/22 15:06:56;;;;;;;8.40;5.63;;;;;;;;;;4900935;29;20498;-78
2022/06/22 15:10:29;;;;;;;9.50;5.00;;;;;;;;;;4896287;29;20431;-76
2022/06/22 15:13:29;;;;;;;10.15;4.90;;;;;;;;;;4886867;29;20049;-77
2022/06/22 15:16:20;;;;;;;9.10;5.65;;;;;;;;;;4907017;29;20507;-78
2022/06/22 15:19:11;;;;;;;11.00;5.40;;;;;;;;;;4900528;29;20049;-77
2022/06/22 15:22:38;;;;;;;12.65;5.28;;;;;;;;;;4907204;29;20048;-77
2022/06/22 15:25:31;;;;;;;8.00;4.70;;;;;;;;;;4900610;29;20045;-80
2022/06/22 15:28:24;;;;;;;9.32;5.18;;;;;;;;;;4900695;29;20057;-81
2022/06/22 15:31:31;;;;;;;8.25;5.10;;;;;;;;;;4900505;29;20507;-78
2022/06/22 15:34:24;;;;;;;7.60;4.97;;;;;;;;;;4900447;29;20056;-78
2022/06/22 15:37:21;;;;;;;13.98;6.72;;;;;;;;;;4900379;29;20056;-78
2022/06/22 15:40:13;;;;;;;10.75;5.65;;;;;;;;;;4899745;29;20045;-76
2022/06/22 15:43:13;;;;;;;10.75;5.63;;;;;;;;;;4900540;29;20048;-77
2022/06/22 15:46:20;;;;;;;10.63;5.93;;;;;;;;;;4880373;29;20057;-78
2022/06/22 15:49:24;;;;;;;11.55;5.68;;;;;;;;;;4907164;29;20061;-77
2022/06/22 15:52:19;;;;;;;11.38;5.38;;;;;;;;;;4900322;29;20044;-77
2022/06/22 15:55:12;;;;;;;8.52;5.70;;;;;;;;;;4905799;29;20045;-77
2022/06/22 15:58:05;;;;;;;11.77;5.70;;;;;;;;;;4900228;29;20485;-78
2022/06/22 16:01:00;;;;;;;11.40;5.35;;;;;;;;;;4879909;29;20057;-78
2022/06/22 16:04:01;;;;;;;10.07;5.30;;;;;;;;;;4895764;29;20048;-78
2022/06/22 16:06:47;;;;;;;10.68;6.00;;;;;;;;;;4895728;29;20048;-77
2022/06/22 16:09:55;;;;;;;8.02;5.32;;;;;;;;;;4890669;29;20049;-78
2022/06/22 16:16:36;;;;;;;13.98;7.95;;;;;;;;;;4899362;29;20048;-78
2022/06/22 16:19:32;;;;;;;14.30;5.93;;;;;;;;;;4898663;29;20057;-78
2022/06/22 16:22:23;;;;;;;15.10;5.32;;;;;;;;;;4899304;29;20045;-78
2022/06/22 16:25:24;;;;;;;9.57;5.38;;;;;;;;;;4899057;29;20044;-78
2022/06/22 16:28:16;;;;;;;11.75;5.93;;;;;;;;;;4900723;29;20044;-78
2022/06/22 16:31:11;;;;;;;12.43;6.60;;;;;;;;;;4900005;29;20048;-78
2022/06/22 16:34:37;;;;;;;11.53;5.97;;;;;;;;;;4899295;29;20056;-78
2022/06/22 16:37:59;;;;;;;12.43;6.28;;;;;;;;;;4852710;29;20048;-79
2022/06/22 16:41:09;;;;;;;13.10;6.35;;;;;;;;;;4894880;29;20052;-78
2022/06/22 16:44:07;;;;;;;21.77;8.23;;;;;;;;;;4896036;29;20370;-78
2022/06/22 16:47:01;;;;;;;15.13;5.78;;;;;;;;;;4899316;29;20040;-78
2022/06/22 16:49:56;;;;;;;16.02;6.30;;;;;;;;;;4895161;29;20044;-78
2022/06/22 16:52:42;;;;;;;11.00;5.90;;;;;;;;;;4894148;29;20053;-78
2022/06/22 16:55:40;;;;;;;15.50;5.60;;;;;;;;;;4899030;29;20486;-78
2022/06/22 16:58:35;;;;;;;14.40;6.32;;;;;;;;;;4898784;29;20494;-78
2022/06/22 17:01:29;;;;;;;8.80;6.00;;;;;;;;;;4898845;29;20040;-78
2022/06/22 17:04:44;;;;;;;9.95;5.80;;;;;;;;;;4898724;29;20506;-79
2022/06/22 17:07:52;;;;;;;7.88;5.75;;;;;;;;;;4905056;29;20045;-79
2022/06/22 17:10:47;;;;;;;13.15;6.00;;;;;;;;;;4898806;29;20058;-79
2022/06/22 17:13:36;;;;;;;12.63;5.88;;;;;;;;;;4898342;29;20044;-78
2022/06/22 17:16:45;;;;;;;13.45;6.20;;;;;;;;;;4898491;29;20052;-78
2022/06/22 17:19:57;;;;;;;16.40;7.95;;;;;;;;;;4889906;29;20048;-78
2022/06/22 17:23:01;;;;;;;21.23;11.00;;;;;;;;;;4893891;29;20406;-78
2022/06/22 17:26:17;;;;;;;13.18;7.63;;;;;;;;;;4898330;29;20056;-78
2022/06/22 17:29:16;;;;;;;16.35;6.95;;;;;;;;;;4896070;29;20495;-79
2022/06/22 17:32:13;;;;;;;12.52;6.63;;;;;;;;;;4898871;29;20053;-79
2022/06/22 17:35:02;;;;;;;12.55;8.10;;;;;;;;;;4897968;29;20044;-79
2022/06/22 17:38:05;;;;;;;18.98;8.80;;;;;;;;;;4898642;29;20045;-79
2022/06/22 17:41:02;;;;;;;17.60;9.60;;;;;;;;;;4894867;29;20048;-79
2022/06/22 17:44:12;;;;;;;20.08;8.23;;;;;;;;;;4894764;29;20052;-79
2022/06/22 17:47:02;;;;;;;17.08;7.90;;;;;;;;;;4895642;29;20053;-80
2022/06/22 17:49:48;;;;;;;14.77;7.07;;;;;;;;;;4898492;29;20515;-79
2022/06/22 17:52:34;;;;;;;49.13;20.00;;;;;;;;;;4898361;29;20048;-79
2022/06/22 17:55:38;;;;;;;46.25;21.38;;;;;;;;;;4897618;29;20044;-79
2022/06/22 17:58:55;;;;;;;28.20;13.10;;;;;;;;;;4898290;29;20491;-79
2022/06/22 18:02:15;;;;;;;17.45;7.57;;;;;;;;;;4897570;29;20048;-79
2022/06/22 18:05:36;;;;;;;14.25;7.85;;;;;;;;;;4898270;29;20044;-79
2022/06/22 18:08:27;;;;;;;18.42;7.57;;;;;;;;;;4898372;29;20040;-79
2022/06/22 18:11:22;;;;;;;15.60;6.82;;;;;;;;;;4901900;29;20490;-79
2022/06/22 18:14:18;;;;;;;17.20;6.55;;;;;;;;;;4902147;29;20040;-79